sensor_id;sensor_type;location;lat;lon;timestamp;P1;durP1;ratioP1;P2;durP2;ratioP2
26588;SDS011;14235;48.532;8.722;2022-07-29T00:00:06;5.78;;;5.35;;
26588;SDS011;14235;48.532;8.722;2022-07-29T00:02:32;5.93;;;5.50;;
26588;SDS011;14235;48.532;8.722;2022-07-29T00:04:58;6.63;;;6.03;;
26588;SDS011;14235;48.532;8.722;2022-07-29T00:07:24;6.65;;;5.93;;
26588;SDS011;14235;48.532;8.722;2022-07-29T00:09:50;6.63;;;6.03;;
26588;SDS011;14235;48.532;8.722;2022-07-29T00:12:16;6.88;;;6.30;;
26588;SDS011;14235;48.532;8.722;2022-07-29T00:14:42;7.30;;;6.30;;
26588;SDS011;14235;48.532;8.722;2022-07-29T00:17:08;6.93;;;6.32;;
26588;SDS011;14235;48.532;8.722;2022-07-29T00:19:34;6.38;;;5.78;;
26588;SDS011;14235;48.532;8.722;2022-07-29T00:22:00;6.47;;;5.82;;
26588;SDS011;14235;48.532;8.722;2022-07-29T00:24:26;6.95;;;5.78;;
26588;SDS011;14235;48.532;8.722;2022-07-29T00:26:52;6.80;;;6.20;;
26588;SDS011;14235;48.532;8.722;2022-07-29T00:29:18;6.00;;;5.40;;
26588;SDS011;14235;48.532;8.722;2022-07-29T00:31:44;6.45;;;5.90;;
26588;SDS011;14235;48.532;8.722;2022-07-29T00:34:10;5.72;;;5.32;;
26588;SDS011;14235;48.532;8.722;2022-07-29T00:36:55;7.25;;;6.63;;
26588;SDS011;14235;48.532;8.722;2022-07-29T00:39:21;7.47;;;6.88;;
26588;SDS011;14235;48.532;8.722;2022-07-29T00:41:47;8.18;;;7.57;;
26588;SDS011;14235;48.532;8.722;2022-07-29T00:44:13;8.50;;;7.47;;
26588;SDS011;14235;48.532;8.722;2022-07-29T00:46:39;8.18;;;7.57;;
26588;SDS011;14235;48.532;8.722;2022-07-29T00:49:05;9.07;;;7.63;;
26588;SDS011;14235;48.532;8.722;2022-07-29T00:51:32;9.38;;;8.20;;
26588;SDS011;14235;48.532;8.722;2022-07-29T00:54:00;9.38;;;8.10;;
26588;SDS011;14235;48.532;8.722;2022-07-29T00:56:26;9.18;;;8.30;;
26588;SDS011;14235;48.532;8.722;2022-07-29T00:58:52;7.03;;;6.53;;
26588;SDS011;14235;48.532;8.722;2022-07-29T01:01:19;8.45;;;7.80;;
26588;SDS011;14235;48.532;8.722;2022-07-29T01:03:45;8.48;;;7.68;;
26588;SDS011;14235;48.532;8.722;2022-07-29T01:06:11;8.30;;;7.40;;
26588;SDS011;14235;48.532;8.722;2022-07-29T01:08:36;6.32;;;5.88;;
26588;SDS011;14235;48.532;8.722;2022-07-29T01:11:03;6.50;;;6.00;;
26588;SDS011;14235;48.532;8.722;2022-07-29T01:13:29;6.65;;;6.05;;
26588;SDS011;14235;48.532;8.722;2022-07-29T01:16:08;6.43;;;5.88;;
26588;SDS011;14235;48.532;8.722;2022-07-29T01:18:34;6.45;;;5.85;;
26588;SDS011;14235;48.532;8.722;2022-07-29T01:26:47;6.18;;;5.72;;
26588;SDS011;14235;48.532;8.722;2022-07-29T01:28:47;6.72;;;5.80;;
26588;SDS011;14235;48.532;8.722;2022-07-29T01:31:16;7.38;;;6.68;;
26588;SDS011;14235;48.532;8.722;2022-07-29T01:33:45;7.35;;;6.60;;
26588;SDS011;14235;48.532;8.722;2022-07-29T01:36:14;10.48;;;7.22;;
26588;SDS011;14235;48.532;8.722;2022-07-29T01:38:44;8.80;;;6.90;;
26588;SDS011;14235;48.532;8.722;2022-07-29T01:41:12;19.27;;;7.93;;
26588;SDS011;14235;48.532;8.722;2022-07-29T01:43:50;10.10;;;7.65;;
26588;SDS011;14235;48.532;8.722;2022-07-29T01:46:19;8.00;;;7.22;;
26588;SDS011;14235;48.532;8.722;2022-07-29T01:48:53;8.43;;;7.63;;
26588;SDS011;14235;48.532;8.722;2022-07-29T01:51:24;7.85;;;6.85;;
26588;SDS011;14235;48.532;8.722;2022-07-29T01:54:07;7.13;;;6.32;;
26588;SDS011;14235;48.532;8.722;2022-07-29T01:56:34;9.23;;;6.65;;
26588;SDS011;14235;48.532;8.722;2022-07-29T01:59:01;6.95;;;6.45;;
26588;SDS011;14235;48.532;8.722;2022-07-29T02:01:27;8.18;;;7.47;;
26588;SDS011;14235;48.532;8.722;2022-07-29T02:03:55;11.27;;;7.97;;
26588;SDS011;14235;48.532;8.722;2022-07-29T02:06:22;10.55;;;7.03;;
26588;SDS011;14235;48.532;8.722;2022-07-29T02:08:49;7.80;;;6.40;;
26588;SDS011;14235;48.532;8.722;2022-07-29T02:11:15;14.07;;;7.60;;
26588;SDS011;14235;48.532;8.722;2022-07-29T02:13:41;7.72;;;7.03;;
26588;SDS011;14235;48.532;8.722;2022-07-29T02:16:09;7.80;;;7.10;;
26588;SDS011;14235;48.532;8.722;2022-07-29T02:18:39;6.82;;;6.32;;
26588;SDS011;14235;48.532;8.722;2022-07-29T02:21:10;6.30;;;5.80;;
26588;SDS011;14235;48.532;8.722;2022-07-29T02:23:37;6.88;;;6.05;;
26588;SDS011;14235;48.532;8.722;2022-07-29T02:26:05;5.60;;;5.20;;
26588;SDS011;14235;48.532;8.722;2022-07-29T02:28:33;5.95;;;5.50;;
26588;SDS011;14235;48.532;8.722;2022-07-29T02:31:00;5.95;;;5.45;;
26588;SDS011;14235;48.532;8.722;2022-07-29T02:33:27;5.80;;;5.30;;
26588;SDS011;14235;48.532;8.722;2022-07-29T02:35:55;7.80;;;6.45;;
26588;SDS011;14235;48.532;8.722;2022-07-29T02:38:23;8.60;;;6.05;;
26588;SDS011;14235;48.532;8.722;2022-07-29T02:41:13;6.45;;;5.80;;
26588;SDS011;14235;48.532;8.722;2022-07-29T02:43:56;8.00;;;6.10;;
26588;SDS011;14235;48.532;8.722;2022-07-29T02:46:30;8.77;;;6.68;;
26588;SDS011;14235;48.532;8.722;2022-07-29T02:52:02;6.38;;;5.90;;
26588;SDS011;14235;48.532;8.722;2022-07-29T02:54:41;6.25;;;5.75;;
26588;SDS011;14235;48.532;8.722;2022-07-29T02:57:14;7.03;;;6.22;;
26588;SDS011;14235;48.532;8.722;2022-07-29T02:59:47;12.07;;;6.55;;
26588;SDS011;14235;48.532;8.722;2022-07-29T03:02:16;8.65;;;6.68;;
26588;SDS011;14235;48.532;8.722;2022-07-29T03:04:43;8.88;;;6.75;;
26588;SDS011;14235;48.532;8.722;2022-07-29T03:07:10;7.65;;;7.05;;
26588;SDS011;14235;48.532;8.722;2022-07-29T03:09:37;7.88;;;7.07;;
26588;SDS011;14235;48.532;8.722;2022-07-29T03:12:05;7.53;;;6.65;;
26588;SDS011;14235;48.532;8.722;2022-07-29T03:14:31;6.93;;;6.43;;
26588;SDS011;14235;48.532;8.722;2022-07-29T03:16:57;7.00;;;6.40;;
26588;SDS011;14235;48.532;8.722;2022-07-29T03:19:23;7.05;;;6.45;;
26588;SDS011;14235;48.532;8.722;2022-07-29T03:21:49;9.93;;;5.93;;
26588;SDS011;14235;48.532;8.722;2022-07-29T03:24:26;6.93;;;6.40;;
26588;SDS011;14235;48.532;8.722;2022-07-29T03:26:54;6.38;;;5.97;;
26588;SDS011;14235;48.532;8.722;2022-07-29T03:29:21;6.65;;;6.05;;
26588;SDS011;14235;48.532;8.722;2022-07-29T03:31:46;7.45;;;6.85;;
26588;SDS011;14235;48.532;8.722;2022-07-29T03:34:12;8.02;;;6.45;;
26588;SDS011;14235;48.532;8.722;2022-07-29T03:36:38;6.75;;;6.20;;
26588;SDS011;14235;48.532;8.722;2022-07-29T03:39:03;7.32;;;6.72;;
26588;SDS011;14235;48.532;8.722;2022-07-29T03:41:30;6.93;;;6.30;;
26588;SDS011;14235;48.532;8.722;2022-07-29T03:43:57;12.20;;;6.25;;
26588;SDS011;14235;48.532;8.722;2022-07-29T03:46:24;8.70;;;6.32;;
26588;SDS011;14235;48.532;8.722;2022-07-29T03:48:55;12.15;;;6.20;;
26588;SDS011;14235;48.532;8.722;2022-07-29T03:51:23;6.38;;;5.95;;
26588;SDS011;14235;48.532;8.722;2022-07-29T03:53:50;8.57;;;7.72;;
26588;SDS011;14235;48.532;8.722;2022-07-29T03:56:15;12.75;;;7.75;;
26588;SDS011;14235;48.532;8.722;2022-07-29T03:58:44;9.60;;;8.20;;
26588;SDS011;14235;48.532;8.722;2022-07-29T04:01:09;7.85;;;7.05;;
26588;SDS011;14235;48.532;8.722;2022-07-29T04:03:36;7.25;;;6.65;;
26588;SDS011;14235;48.532;8.722;2022-07-29T04:06:03;7.22;;;6.63;;
26588;SDS011;14235;48.532;8.722;2022-07-29T04:08:31;6.38;;;5.78;;
26588;SDS011;14235;48.532;8.722;2022-07-29T04:10:57;6.40;;;6.00;;
26588;SDS011;14235;48.532;8.722;2022-07-29T04:13:24;10.27;;;6.20;;
26588;SDS011;14235;48.532;8.722;2022-07-29T04:15:49;7.07;;;6.50;;
26588;SDS011;14235;48.532;8.722;2022-07-29T04:18:15;6.57;;;5.97;;
26588;SDS011;14235;48.532;8.722;2022-07-29T04:20:41;10.40;;;6.60;;
26588;SDS011;14235;48.532;8.722;2022-07-29T04:23:06;7.55;;;6.85;;
26588;SDS011;14235;48.532;8.722;2022-07-29T04:25:32;7.40;;;6.70;;
26588;SDS011;14235;48.532;8.722;2022-07-29T04:27:58;10.95;;;6.90;;
26588;SDS011;14235;48.532;8.722;2022-07-29T04:30:26;7.30;;;6.60;;
26588;SDS011;14235;48.532;8.722;2022-07-29T04:32:52;7.15;;;6.45;;
26588;SDS011;14235;48.532;8.722;2022-07-29T04:35:18;7.57;;;6.88;;
26588;SDS011;14235;48.532;8.722;2022-07-29T04:37:44;7.60;;;7.00;;
26588;SDS011;14235;48.532;8.722;2022-07-29T04:40:10;7.72;;;6.95;;
26588;SDS011;14235;48.532;8.722;2022-07-29T04:42:36;7.32;;;6.63;;
26588;SDS011;14235;48.532;8.722;2022-07-29T04:45:02;6.40;;;5.90;;
26588;SDS011;14235;48.532;8.722;2022-07-29T04:47:28;6.95;;;6.45;;
26588;SDS011;14235;48.532;8.722;2022-07-29T04:49:54;6.60;;;6.10;;
26588;SDS011;14235;48.532;8.722;2022-07-29T04:52:21;6.43;;;6.03;;
26588;SDS011;14235;48.532;8.722;2022-07-29T04:54:47;6.68;;;6.18;;
26588;SDS011;14235;48.532;8.722;2022-07-29T04:57:12;7.47;;;6.78;;
26588;SDS011;14235;48.532;8.722;2022-07-29T04:59:38;6.28;;;5.88;;
26588;SDS011;14235;48.532;8.722;2022-07-29T05:02:03;6.70;;;6.13;;
26588;SDS011;14235;48.532;8.722;2022-07-29T05:04:29;6.70;;;6.20;;
26588;SDS011;14235;48.532;8.722;2022-07-29T05:06:54;6.72;;;6.22;;
26588;SDS011;14235;48.532;8.722;2022-07-29T05:09:20;7.20;;;6.70;;
26588;SDS011;14235;48.532;8.722;2022-07-29T05:11:46;6.93;;;6.35;;
26588;SDS011;14235;48.532;8.722;2022-07-29T05:14:11;7.38;;;6.70;;
26588;SDS011;14235;48.532;8.722;2022-07-29T05:16:37;7.90;;;7.10;;
26588;SDS011;14235;48.532;8.722;2022-07-29T05:19:04;7.53;;;6.93;;
26588;SDS011;14235;48.532;8.722;2022-07-29T05:21:29;7.75;;;7.07;;
26588;SDS011;14235;48.532;8.722;2022-07-29T05:23:55;7.05;;;6.50;;
26588;SDS011;14235;48.532;8.722;2022-07-29T05:26:21;7.03;;;6.35;;
26588;SDS011;14235;48.532;8.722;2022-07-29T05:28:46;7.13;;;6.53;;
26588;SDS011;14235;48.532;8.722;2022-07-29T05:31:12;6.22;;;5.75;;
26588;SDS011;14235;48.532;8.722;2022-07-29T05:33:39;6.40;;;5.90;;
26588;SDS011;14235;48.532;8.722;2022-07-29T05:36:05;6.68;;;6.18;;
26588;SDS011;14235;48.532;8.722;2022-07-29T05:38:31;7.20;;;6.50;;
26588;SDS011;14235;48.532;8.722;2022-07-29T05:40:58;6.53;;;6.05;;
26588;SDS011;14235;48.532;8.722;2022-07-29T05:43:24;7.47;;;6.10;;
26588;SDS011;14235;48.532;8.722;2022-07-29T05:45:51;7.35;;;6.68;;
26588;SDS011;14235;48.532;8.722;2022-07-29T05:48:17;7.55;;;6.85;;
26588;SDS011;14235;48.532;8.722;2022-07-29T05:50:42;7.25;;;6.60;;
26588;SDS011;14235;48.532;8.722;2022-07-29T05:53:08;7.30;;;6.63;;
26588;SDS011;14235;48.532;8.722;2022-07-29T05:55:33;7.03;;;6.53;;
26588;SDS011;14235;48.532;8.722;2022-07-29T05:57:59;6.95;;;6.43;;
26588;SDS011;14235;48.532;8.722;2022-07-29T06:00:24;7.43;;;6.82;;
26588;SDS011;14235;48.532;8.722;2022-07-29T06:02:50;7.20;;;6.60;;
26588;SDS011;14235;48.532;8.722;2022-07-29T06:05:16;7.30;;;6.57;;
26588;SDS011;14235;48.532;8.722;2022-07-29T06:07:42;7.15;;;6.50;;
26588;SDS011;14235;48.532;8.722;2022-07-29T06:10:07;6.90;;;6.30;;
26588;SDS011;14235;48.532;8.722;2022-07-29T06:12:34;7.13;;;6.50;;
26588;SDS011;14235;48.532;8.722;2022-07-29T06:14:59;7.15;;;6.55;;
26588;SDS011;14235;48.532;8.722;2022-07-29T06:17:26;7.45;;;6.70;;
26588;SDS011;14235;48.532;8.722;2022-07-29T06:19:52;7.38;;;6.88;;
26588;SDS011;14235;48.532;8.722;2022-07-29T06:22:17;7.32;;;6.68;;
26588;SDS011;14235;48.532;8.722;2022-07-29T06:24:43;7.13;;;6.63;;
26588;SDS011;14235;48.532;8.722;2022-07-29T06:27:09;7.55;;;6.85;;
26588;SDS011;14235;48.532;8.722;2022-07-29T06:29:35;7.63;;;6.90;;
26588;SDS011;14235;48.532;8.722;2022-07-29T06:32:01;8.35;;;6.85;;
26588;SDS011;14235;48.532;8.722;2022-07-29T06:34:27;8.07;;;7.38;;
26588;SDS011;14235;48.532;8.722;2022-07-29T06:36:53;7.53;;;6.78;;
26588;SDS011;14235;48.532;8.722;2022-07-29T06:39:18;7.63;;;7.03;;
26588;SDS011;14235;48.532;8.722;2022-07-29T06:41:47;8.13;;;7.28;;
26588;SDS011;14235;48.532;8.722;2022-07-29T06:44:16;9.60;;;7.00;;
26588;SDS011;14235;48.532;8.722;2022-07-29T06:46:43;7.82;;;7.13;;
26588;SDS011;14235;48.532;8.722;2022-07-29T06:49:09;7.22;;;6.55;;
26588;SDS011;14235;48.532;8.722;2022-07-29T06:51:34;7.88;;;6.93;;
26588;SDS011;14235;48.532;8.722;2022-07-29T06:54:01;7.03;;;6.43;;
26588;SDS011;14235;48.532;8.722;2022-07-29T06:56:28;7.80;;;7.00;;
26588;SDS011;14235;48.532;8.722;2022-07-29T06:58:57;7.88;;;7.28;;
26588;SDS011;14235;48.532;8.722;2022-07-29T07:01:22;7.78;;;7.18;;
26588;SDS011;14235;48.532;8.722;2022-07-29T07:03:48;7.25;;;6.75;;
26588;SDS011;14235;48.532;8.722;2022-07-29T07:06:14;7.85;;;7.15;;
26588;SDS011;14235;48.532;8.722;2022-07-29T07:08:39;7.85;;;7.25;;
26588;SDS011;14235;48.532;8.722;2022-07-29T07:11:05;7.80;;;7.13;;
26588;SDS011;14235;48.532;8.722;2022-07-29T07:13:32;7.55;;;6.90;;
26588;SDS011;14235;48.532;8.722;2022-07-29T07:15:59;7.63;;;7.03;;
26588;SDS011;14235;48.532;8.722;2022-07-29T07:18:25;7.53;;;6.93;;
26588;SDS011;14235;48.532;8.722;2022-07-29T07:20:51;8.88;;;8.02;;
26588;SDS011;14235;48.532;8.722;2022-07-29T07:23:17;7.60;;;7.10;;
26588;SDS011;14235;48.532;8.722;2022-07-29T07:25:42;7.82;;;7.15;;
26588;SDS011;14235;48.532;8.722;2022-07-29T07:28:08;7.80;;;7.20;;
26588;SDS011;14235;48.532;8.722;2022-07-29T07:30:35;8.07;;;7.28;;
26588;SDS011;14235;48.532;8.722;2022-07-29T07:33:00;7.90;;;7.13;;
26588;SDS011;14235;48.532;8.722;2022-07-29T07:35:26;7.65;;;7.15;;
26588;SDS011;14235;48.532;8.722;2022-07-29T07:37:52;7.65;;;6.93;;
26588;SDS011;14235;48.532;8.722;2022-07-29T07:40:19;7.15;;;6.55;;
26588;SDS011;14235;48.532;8.722;2022-07-29T07:42:44;7.03;;;6.40;;
26588;SDS011;14235;48.532;8.722;2022-07-29T07:45:10;7.75;;;6.95;;
26588;SDS011;14235;48.532;8.722;2022-07-29T07:47:36;7.40;;;6.82;;
26588;SDS011;14235;48.532;8.722;2022-07-29T07:50:04;7.95;;;7.15;;
26588;SDS011;14235;48.532;8.722;2022-07-29T07:52:31;6.85;;;6.35;;
26588;SDS011;14235;48.532;8.722;2022-07-29T07:54:56;6.97;;;6.38;;
26588;SDS011;14235;48.532;8.722;2022-07-29T07:57:22;7.50;;;6.68;;
26588;SDS011;14235;48.532;8.722;2022-07-29T07:59:47;7.30;;;6.60;;
26588;SDS011;14235;48.532;8.722;2022-07-29T08:02:13;7.55;;;6.85;;
26588;SDS011;14235;48.532;8.722;2022-07-29T08:04:39;7.00;;;6.30;;
26588;SDS011;14235;48.532;8.722;2022-07-29T08:07:05;7.40;;;5.85;;
26588;SDS011;14235;48.532;8.722;2022-07-29T08:09:32;6.95;;;6.30;;
26588;SDS011;14235;48.532;8.722;2022-07-29T08:11:58;6.18;;;5.68;;
26588;SDS011;14235;48.532;8.722;2022-07-29T08:14:24;6.32;;;5.82;;
26588;SDS011;14235;48.532;8.722;2022-07-29T08:16:50;6.82;;;5.63;;
26588;SDS011;14235;48.532;8.722;2022-07-29T08:19:16;5.97;;;5.38;;
26588;SDS011;14235;48.532;8.722;2022-07-29T08:21:41;6.63;;;6.03;;
26588;SDS011;14235;48.532;8.722;2022-07-29T08:24:07;8.93;;;6.25;;
26588;SDS011;14235;48.532;8.722;2022-07-29T08:26:51;8.40;;;5.90;;
26588;SDS011;14235;48.532;8.722;2022-07-29T08:29:16;5.55;;;5.10;;
26588;SDS011;14235;48.532;8.722;2022-07-29T08:31:42;7.32;;;5.53;;
26588;SDS011;14235;48.532;8.722;2022-07-29T08:34:08;5.95;;;5.40;;
26588;SDS011;14235;48.532;8.722;2022-07-29T08:36:34;7.45;;;5.55;;
26588;SDS011;14235;48.532;8.722;2022-07-29T08:39:00;7.10;;;5.30;;
26588;SDS011;14235;48.532;8.722;2022-07-29T08:41:26;6.32;;;5.82;;
26588;SDS011;14235;48.532;8.722;2022-07-29T08:43:52;5.90;;;5.30;;
26588;SDS011;14235;48.532;8.722;2022-07-29T08:46:18;7.60;;;5.20;;
26588;SDS011;14235;48.532;8.722;2022-07-29T08:48:45;7.15;;;5.57;;
26588;SDS011;14235;48.532;8.722;2022-07-29T08:51:16;5.95;;;5.05;;
26588;SDS011;14235;48.532;8.722;2022-07-29T08:53:44;6.32;;;4.70;;
26588;SDS011;14235;48.532;8.722;2022-07-29T08:56:13;5.20;;;4.70;;
26588;SDS011;14235;48.532;8.722;2022-07-29T08:58:43;5.05;;;4.65;;
26588;SDS011;14235;48.532;8.722;2022-07-29T09:01:14;5.25;;;4.75;;
26588;SDS011;14235;48.532;8.722;2022-07-29T09:03:43;5.25;;;4.85;;
26588;SDS011;14235;48.532;8.722;2022-07-29T09:06:14;4.90;;;4.60;;
26588;SDS011;14235;48.532;8.722;2022-07-29T09:08:41;5.20;;;4.70;;
26588;SDS011;14235;48.532;8.722;2022-07-29T09:11:07;5.65;;;5.05;;
26588;SDS011;14235;48.532;8.722;2022-07-29T09:13:33;4.85;;;4.43;;
26588;SDS011;14235;48.532;8.722;2022-07-29T09:15:59;5.53;;;4.43;;
26588;SDS011;14235;48.532;8.722;2022-07-29T09:21:05;4.50;;;4.20;;
26588;SDS011;14235;48.532;8.722;2022-07-29T09:24:10;4.88;;;4.38;;
26588;SDS011;14235;48.532;8.722;2022-07-29T09:26:38;5.82;;;4.55;;
26588;SDS011;14235;48.532;8.722;2022-07-29T09:31:37;4.18;;;3.85;;
26588;SDS011;14235;48.532;8.722;2022-07-29T09:34:04;4.07;;;3.67;;
26588;SDS011;14235;48.532;8.722;2022-07-29T09:36:33;6.78;;;4.47;;
26588;SDS011;14235;48.532;8.722;2022-07-29T09:39:07;6.22;;;4.75;;
26588;SDS011;14235;48.532;8.722;2022-07-29T09:44:12;4.88;;;4.47;;
26588;SDS011;14235;48.532;8.722;2022-07-29T09:46:39;4.53;;;4.13;;
26588;SDS011;14235;48.532;8.722;2022-07-29T09:49:10;5.90;;;4.38;;
26588;SDS011;14235;48.532;8.722;2022-07-29T09:51:37;4.97;;;4.43;;
26588;SDS011;14235;48.532;8.722;2022-07-29T09:54:22;5.45;;;3.78;;
26588;SDS011;14235;48.532;8.722;2022-07-29T09:56:48;6.55;;;4.20;;
26588;SDS011;14235;48.532;8.722;2022-07-29T09:59:14;4.55;;;3.85;;
26588;SDS011;14235;48.532;8.722;2022-07-29T10:01:40;4.55;;;3.72;;
26588;SDS011;14235;48.532;8.722;2022-07-29T10:04:06;6.68;;;4.30;;
26588;SDS011;14235;48.532;8.722;2022-07-29T10:06:31;5.47;;;3.70;;
26588;SDS011;14235;48.532;8.722;2022-07-29T10:09:10;4.78;;;4.13;;
26588;SDS011;14235;48.532;8.722;2022-07-29T10:11:36;5.32;;;3.83;;
26588;SDS011;14235;48.532;8.722;2022-07-29T10:14:02;5.28;;;3.88;;
26588;SDS011;14235;48.532;8.722;2022-07-29T10:16:29;4.30;;;3.53;;
26588;SDS011;14235;48.532;8.722;2022-07-29T10:18:58;3.97;;;3.60;;
26588;SDS011;14235;48.532;8.722;2022-07-29T10:21:27;4.10;;;3.80;;
26588;SDS011;14235;48.532;8.722;2022-07-29T10:23:54;4.18;;;3.53;;
26588;SDS011;14235;48.532;8.722;2022-07-29T10:26:21;4.10;;;3.25;;
26588;SDS011;14235;48.532;8.722;2022-07-29T10:28:47;4.75;;;3.20;;
26588;SDS011;14235;48.532;8.722;2022-07-29T10:31:15;6.35;;;3.50;;
26588;SDS011;14235;48.532;8.722;2022-07-29T10:34:09;5.00;;;3.22;;
26588;SDS011;14235;48.532;8.722;2022-07-29T10:36:56;3.50;;;3.30;;
26588;SDS011;14235;48.532;8.722;2022-07-29T10:42:25;5.45;;;3.17;;
26588;SDS011;14235;48.532;8.722;2022-07-29T10:44:53;5.68;;;3.88;;
26588;SDS011;14235;48.532;8.722;2022-07-29T10:47:21;4.65;;;4.25;;
26588;SDS011;14235;48.532;8.722;2022-07-29T10:50:01;4.93;;;4.22;;
26588;SDS011;14235;48.532;8.722;2022-07-29T10:58:23;4.50;;;3.70;;
26588;SDS011;14235;48.532;8.722;2022-07-29T11:00:50;4.13;;;3.83;;
26588;SDS011;14235;48.532;8.722;2022-07-29T11:06:09;4.50;;;4.10;;
26588;SDS011;14235;48.532;8.722;2022-07-29T11:08:35;4.15;;;3.85;;
26588;SDS011;14235;48.532;8.722;2022-07-29T11:11:30;4.55;;;4.20;;
26588;SDS011;14235;48.532;8.722;2022-07-29T11:13:56;4.32;;;4.00;;
26588;SDS011;14235;48.532;8.722;2022-07-29T11:16:22;7.20;;;3.83;;
26588;SDS011;14235;48.532;8.722;2022-07-29T11:21:35;4.97;;;3.80;;
26588;SDS011;14235;48.532;8.722;2022-07-29T11:27:07;4.57;;;4.25;;
26588;SDS011;14235;48.532;8.722;2022-07-29T11:29:54;4.15;;;3.60;;
26588;SDS011;14235;48.532;8.722;2022-07-29T11:32:28;4.20;;;3.90;;
26588;SDS011;14235;48.532;8.722;2022-07-29T11:37:45;8.13;;;3.28;;
26588;SDS011;14235;48.532;8.722;2022-07-29T11:40:14;3.80;;;2.97;;
26588;SDS011;14235;48.532;8.722;2022-07-29T11:42:41;7.63;;;3.03;;
26588;SDS011;14235;48.532;8.722;2022-07-29T11:45:12;3.78;;;3.33;;
26588;SDS011;14235;48.532;8.722;2022-07-29T11:48:01;3.50;;;3.08;;
26588;SDS011;14235;48.532;8.722;2022-07-29T11:50:31;4.82;;;3.15;;
26588;SDS011;14235;48.532;8.722;2022-07-29T11:52:59;2.97;;;2.78;;
26588;SDS011;14235;48.532;8.722;2022-07-29T11:55:25;3.53;;;2.80;;
26588;SDS011;14235;48.532;8.722;2022-07-29T11:57:51;2.92;;;2.50;;
26588;SDS011;14235;48.532;8.722;2022-07-29T12:00:27;3.30;;;3.00;;
26588;SDS011;14235;48.532;8.722;2022-07-29T12:03:05;3.10;;;2.80;;
26588;SDS011;14235;48.532;8.722;2022-07-29T12:05:37;3.33;;;3.05;;
26588;SDS011;14235;48.532;8.722;2022-07-29T12:10:39;3.92;;;3.25;;
26588;SDS011;14235;48.532;8.722;2022-07-29T12:13:05;4.20;;;3.03;;
26588;SDS011;14235;48.532;8.722;2022-07-29T12:15:31;3.25;;;2.95;;
26588;SDS011;14235;48.532;8.722;2022-07-29T12:17:57;3.30;;;2.85;;
26588;SDS011;14235;48.532;8.722;2022-07-29T12:20:24;3.88;;;2.70;;
26588;SDS011;14235;48.532;8.722;2022-07-29T12:22:54;4.78;;;2.80;;
26588;SDS011;14235;48.532;8.722;2022-07-29T12:25:21;5.78;;;2.90;;
26588;SDS011;14235;48.532;8.722;2022-07-29T12:27:58;6.22;;;4.68;;
26588;SDS011;14235;48.532;8.722;2022-07-29T12:30:34;7.70;;;4.60;;
26588;SDS011;14235;48.532;8.722;2022-07-29T12:33:09;5.32;;;4.30;;
26588;SDS011;14235;48.532;8.722;2022-07-29T12:35:36;7.10;;;4.80;;
26588;SDS011;14235;48.532;8.722;2022-07-29T12:38:02;4.50;;;4.10;;
26588;SDS011;14235;48.532;8.722;2022-07-29T12:40:28;4.63;;;4.22;;
26588;SDS011;14235;48.532;8.722;2022-07-29T12:43:09;4.70;;;4.25;;
26588;SDS011;14235;48.532;8.722;2022-07-29T12:45:36;5.80;;;4.05;;
26588;SDS011;14235;48.532;8.722;2022-07-29T12:48:03;6.75;;;4.18;;
26588;SDS011;14235;48.532;8.722;2022-07-29T12:50:29;11.43;;;4.30;;
26588;SDS011;14235;48.532;8.722;2022-07-29T12:53:07;5.82;;;4.75;;
26588;SDS011;14235;48.532;8.722;2022-07-29T12:55:44;5.93;;;4.45;;
26588;SDS011;14235;48.532;8.722;2022-07-29T12:58:14;7.32;;;4.93;;
26588;SDS011;14235;48.532;8.722;2022-07-29T13:00:58;5.40;;;4.88;;
26588;SDS011;14235;48.532;8.722;2022-07-29T13:03:29;6.40;;;4.43;;
26588;SDS011;14235;48.532;8.722;2022-07-29T13:14:11;9.68;;;5.50;;
26588;SDS011;14235;48.532;8.722;2022-07-29T13:19:33;7.78;;;4.88;;
26588;SDS011;14235;48.532;8.722;2022-07-29T13:22:00;6.75;;;4.80;;
26588;SDS011;14235;48.532;8.722;2022-07-29T13:24:26;6.65;;;5.03;;
26588;SDS011;14235;48.532;8.722;2022-07-29T13:26:51;7.15;;;5.10;;
26588;SDS011;14235;48.532;8.722;2022-07-29T13:29:17;5.95;;;4.90;;
26588;SDS011;14235;48.532;8.722;2022-07-29T13:31:43;6.78;;;4.95;;
26588;SDS011;14235;48.532;8.722;2022-07-29T13:34:08;5.95;;;5.20;;
26588;SDS011;14235;48.532;8.722;2022-07-29T13:36:34;6.25;;;5.13;;
26588;SDS011;14235;48.532;8.722;2022-07-29T13:38:59;8.88;;;5.32;;
26588;SDS011;14235;48.532;8.722;2022-07-29T13:41:27;7.65;;;5.30;;
26588;SDS011;14235;48.532;8.722;2022-07-29T13:43:53;7.00;;;5.43;;
26588;SDS011;14235;48.532;8.722;2022-07-29T13:46:20;5.85;;;5.20;;
26588;SDS011;14235;48.532;8.722;2022-07-29T13:48:46;8.68;;;5.32;;
26588;SDS011;14235;48.532;8.722;2022-07-29T13:51:12;8.48;;;5.53;;
26588;SDS011;14235;48.532;8.722;2022-07-29T13:53:38;6.63;;;5.20;;
26588;SDS011;14235;48.532;8.722;2022-07-29T13:56:03;7.60;;;5.55;;
26588;SDS011;14235;48.532;8.722;2022-07-29T13:58:32;6.20;;;5.60;;
26588;SDS011;14235;48.532;8.722;2022-07-29T14:00:58;7.72;;;5.30;;
26588;SDS011;14235;48.532;8.722;2022-07-29T14:03:24;5.78;;;5.28;;
26588;SDS011;14235;48.532;8.722;2022-07-29T14:05:50;9.18;;;5.60;;
26588;SDS011;14235;48.532;8.722;2022-07-29T14:08:17;9.57;;;5.70;;
26588;SDS011;14235;48.532;8.722;2022-07-29T14:10:43;6.07;;;5.35;;
26588;SDS011;14235;48.532;8.722;2022-07-29T14:13:09;5.80;;;5.00;;
26588;SDS011;14235;48.532;8.722;2022-07-29T14:15:35;6.25;;;5.38;;
26588;SDS011;14235;48.532;8.722;2022-07-29T14:18:00;5.97;;;5.38;;
26588;SDS011;14235;48.532;8.722;2022-07-29T14:20:26;6.55;;;5.07;;
26588;SDS011;14235;48.532;8.722;2022-07-29T14:22:54;7.63;;;5.38;;
26588;SDS011;14235;48.532;8.722;2022-07-29T14:25:20;7.75;;;5.97;;
26588;SDS011;14235;48.532;8.722;2022-07-29T14:27:46;10.15;;;5.20;;
26588;SDS011;14235;48.532;8.722;2022-07-29T14:30:11;7.25;;;5.47;;
26588;SDS011;14235;48.532;8.722;2022-07-29T14:32:37;7.68;;;5.65;;
26588;SDS011;14235;48.532;8.722;2022-07-29T14:35:03;6.40;;;5.80;;
26588;SDS011;14235;48.532;8.722;2022-07-29T14:37:29;6.10;;;5.55;;
26588;SDS011;14235;48.532;8.722;2022-07-29T14:39:55;6.30;;;5.70;;
26588;SDS011;14235;48.532;8.722;2022-07-29T14:42:24;9.57;;;5.72;;
26588;SDS011;14235;48.532;8.722;2022-07-29T14:44:50;6.07;;;5.47;;
26588;SDS011;14235;48.532;8.722;2022-07-29T14:47:15;9.32;;;6.35;;
26588;SDS011;14235;48.532;8.722;2022-07-29T14:49:41;11.88;;;6.32;;
26588;SDS011;14235;48.532;8.722;2022-07-29T14:52:06;5.80;;;5.20;;
26588;SDS011;14235;48.532;8.722;2022-07-29T14:54:32;7.80;;;5.47;;
26588;SDS011;14235;48.532;8.722;2022-07-29T14:56:57;5.07;;;4.63;;
26588;SDS011;14235;48.532;8.722;2022-07-29T14:59:23;4.85;;;4.45;;
26588;SDS011;14235;48.532;8.722;2022-07-29T15:01:49;5.05;;;3.90;;
26588;SDS011;14235;48.532;8.722;2022-07-29T15:04:15;3.83;;;3.53;;
26588;SDS011;14235;48.532;8.722;2022-07-29T15:06:40;4.35;;;2.97;;
26588;SDS011;14235;48.532;8.722;2022-07-29T15:09:06;4.32;;;2.97;;
26588;SDS011;14235;48.532;8.722;2022-07-29T15:11:31;4.10;;;3.10;;
26588;SDS011;14235;48.532;8.722;2022-07-29T15:13:57;2.85;;;2.65;;
26588;SDS011;14235;48.532;8.722;2022-07-29T15:16:22;4.63;;;2.90;;
26588;SDS011;14235;48.532;8.722;2022-07-29T15:18:48;3.75;;;2.72;;
26588;SDS011;14235;48.532;8.722;2022-07-29T15:21:14;3.60;;;2.85;;
26588;SDS011;14235;48.532;8.722;2022-07-29T15:23:40;2.55;;;2.40;;
26588;SDS011;14235;48.532;8.722;2022-07-29T15:26:06;3.25;;;2.33;;
26588;SDS011;14235;48.532;8.722;2022-07-29T15:28:31;3.90;;;2.33;;
26588;SDS011;14235;48.532;8.722;2022-07-29T15:30:57;2.53;;;2.33;;
26588;SDS011;14235;48.532;8.722;2022-07-29T15:33:23;3.13;;;2.42;;
26588;SDS011;14235;48.532;8.722;2022-07-29T15:35:48;2.80;;;2.60;;
26588;SDS011;14235;48.532;8.722;2022-07-29T15:38:15;2.70;;;2.50;;
26588;SDS011;14235;48.532;8.722;2022-07-29T15:40:40;2.67;;;2.42;;